sensor_id;sensor_type;location;lat;lon;timestamp;P1;durP1;ratioP1;P2;durP2;ratioP2
49366;SDS011;35245;52.026;8.540;2023-11-21T00:01:02;27.60;;;16.83;;
49366;SDS011;35245;52.026;8.540;2023-11-21T00:03:29;29.48;;;16.73;;
49366;SDS011;35245;52.026;8.540;2023-11-21T00:05:56;28.50;;;16.75;;
49366;SDS011;35245;52.026;8.540;2023-11-21T00:08:23;29.65;;;16.42;;
49366;SDS011;35245;52.026;8.540;2023-11-21T00:10:51;28.27;;;16.42;;
49366;SDS011;35245;52.026;8.540;2023-11-21T00:13:20;30.35;;;16.67;;
49366;SDS011;35245;52.026;8.540;2023-11-21T00:15:47;28.85;;;17.23;;
49366;SDS011;35245;52.026;8.540;2023-11-21T00:18:14;31.48;;;15.77;;
49366;SDS011;35245;52.026;8.540;2023-11-21T00:20:41;33.20;;;17.30;;
49366;SDS011;35245;52.026;8.540;2023-11-21T00:23:08;29.38;;;15.35;;
49366;SDS011;35245;52.026;8.540;2023-11-21T00:25:35;26.98;;;15.57;;
49366;SDS011;35245;52.026;8.540;2023-11-21T00:28:04;28.45;;;15.95;;
49366;SDS011;35245;52.026;8.540;2023-11-21T00:30:31;28.08;;;15.75;;
49366;SDS011;35245;52.026;8.540;2023-11-21T00:32:58;23.85;;;15.43;;
49366;SDS011;35245;52.026;8.540;2023-11-21T00:35:25;25.17;;;16.25;;
49366;SDS011;35245;52.026;8.540;2023-11-21T00:37:52;29.20;;;15.60;;
49366;SDS011;35245;52.026;8.540;2023-11-21T00:40:19;26.88;;;16.15;;
49366;SDS011;35245;52.026;8.540;2023-11-21T00:42:46;32.58;;;17.00;;
49366;SDS011;35245;52.026;8.540;2023-11-21T00:45:15;30.08;;;17.48;;
49366;SDS011;35245;52.026;8.540;2023-11-21T00:47:42;29.00;;;17.35;;
49366;SDS011;35245;52.026;8.540;2023-11-21T00:50:09;27.55;;;16.45;;
49366;SDS011;35245;52.026;8.540;2023-11-21T00:52:36;26.30;;;16.60;;
49366;SDS011;35245;52.026;8.540;2023-11-21T00:55:03;32.53;;;18.15;;
49366;SDS011;35245;52.026;8.540;2023-11-21T00:57:32;30.17;;;17.35;;
49366;SDS011;35245;52.026;8.540;2023-11-21T00:59:59;29.13;;;16.40;;
49366;SDS011;35245;52.026;8.540;2023-11-21T01:02:28;29.98;;;17.23;;
49366;SDS011;35245;52.026;8.540;2023-11-21T01:04:54;30.23;;;17.70;;
49366;SDS011;35245;52.026;8.540;2023-11-21T01:07:21;31.20;;;16.73;;
49366;SDS011;35245;52.026;8.540;2023-11-21T01:09:49;29.08;;;16.63;;
49366;SDS011;35245;52.026;8.540;2023-11-21T01:12:16;25.83;;;16.95;;
49366;SDS011;35245;52.026;8.540;2023-11-21T01:14:43;32.22;;;17.40;;
49366;SDS011;35245;52.026;8.540;2023-11-21T01:17:11;28.83;;;17.60;;
49366;SDS011;35245;52.026;8.540;2023-11-21T01:19:39;32.60;;;19.00;;
49366;SDS011;35245;52.026;8.540;2023-11-21T01:22:06;35.30;;;17.92;;
49366;SDS011;35245;52.026;8.540;2023-11-21T01:24:33;29.45;;;17.67;;
49366;SDS011;35245;52.026;8.540;2023-11-21T01:27:01;29.10;;;15.55;;
49366;SDS011;35245;52.026;8.540;2023-11-21T01:29:29;34.80;;;17.67;;
49366;SDS011;35245;52.026;8.540;2023-11-21T01:31:56;30.77;;;17.20;;
49366;SDS011;35245;52.026;8.540;2023-11-21T01:34:23;33.20;;;16.88;;
49366;SDS011;35245;52.026;8.540;2023-11-21T01:36:51;28.98;;;16.70;;
49366;SDS011;35245;52.026;8.540;2023-11-21T01:39:18;28.38;;;16.33;;
49366;SDS011;35245;52.026;8.540;2023-11-21T01:41:48;29.75;;;16.45;;
49366;SDS011;35245;52.026;8.540;2023-11-21T01:44:16;29.02;;;16.60;;
49366;SDS011;35245;52.026;8.540;2023-11-21T01:46:44;25.08;;;15.73;;
49366;SDS011;35245;52.026;8.540;2023-11-21T01:49:11;34.95;;;19.77;;
49366;SDS011;35245;52.026;8.540;2023-11-21T01:51:38;29.77;;;17.30;;
49366;SDS011;35245;52.026;8.540;2023-11-21T01:54:06;32.00;;;18.10;;
49366;SDS011;35245;52.026;8.540;2023-11-21T01:56:33;26.42;;;16.40;;
49366;SDS011;35245;52.026;8.540;2023-11-21T01:59:01;30.63;;;17.55;;
49366;SDS011;35245;52.026;8.540;2023-11-21T02:01:28;34.38;;;18.83;;
49366;SDS011;35245;52.026;8.540;2023-11-21T02:03:54;31.20;;;18.25;;
49366;SDS011;35245;52.026;8.540;2023-11-21T02:06:21;38.88;;;18.38;;
49366;SDS011;35245;52.026;8.540;2023-11-21T02:08:49;27.98;;;15.68;;
49366;SDS011;35245;52.026;8.540;2023-11-21T02:11:18;28.33;;;16.85;;
49366;SDS011;35245;52.026;8.540;2023-11-21T02:13:45;31.48;;;18.00;;
49366;SDS011;35245;52.026;8.540;2023-11-21T02:16:12;29.25;;;17.38;;
49366;SDS011;35245;52.026;8.540;2023-11-21T02:18:40;32.92;;;19.00;;
49366;SDS011;35245;52.026;8.540;2023-11-21T02:21:06;29.85;;;18.38;;
49366;SDS011;35245;52.026;8.540;2023-11-21T02:23:36;30.02;;;17.00;;
49366;SDS011;35245;52.026;8.540;2023-11-21T02:26:07;32.90;;;17.23;;
49366;SDS011;35245;52.026;8.540;2023-11-21T02:28:35;35.45;;;18.48;;
49366;SDS011;35245;52.026;8.540;2023-11-21T02:31:01;30.75;;;17.02;;
49366;SDS011;35245;52.026;8.540;2023-11-21T02:33:29;27.80;;;16.13;;
49366;SDS011;35245;52.026;8.540;2023-11-21T02:35:58;30.20;;;16.20;;
49366;SDS011;35245;52.026;8.540;2023-11-21T02:38:25;29.00;;;17.25;;
49366;SDS011;35245;52.026;8.540;2023-11-21T02:40:53;27.92;;;15.73;;
49366;SDS011;35245;52.026;8.540;2023-11-21T02:43:21;32.28;;;16.38;;
49366;SDS011;35245;52.026;8.540;2023-11-21T02:45:48;32.33;;;16.88;;
49366;SDS011;35245;52.026;8.540;2023-11-21T02:48:15;29.38;;;15.48;;
49366;SDS011;35245;52.026;8.540;2023-11-21T02:50:42;32.45;;;16.67;;
49366;SDS011;35245;52.026;8.540;2023-11-21T02:53:09;30.58;;;15.95;;
49366;SDS011;35245;52.026;8.540;2023-11-21T02:55:37;35.00;;;16.30;;
49366;SDS011;35245;52.026;8.540;2023-11-21T02:58:05;29.52;;;15.07;;
49366;SDS011;35245;52.026;8.540;2023-11-21T03:00:33;29.83;;;14.98;;
49366;SDS011;35245;52.026;8.540;2023-11-21T03:03:00;28.70;;;14.68;;
49366;SDS011;35245;52.026;8.540;2023-11-21T03:05:27;34.05;;;15.93;;
49366;SDS011;35245;52.026;8.540;2023-11-21T03:07:54;28.85;;;15.25;;
49366;SDS011;35245;52.026;8.540;2023-11-21T03:10:21;33.28;;;16.17;;
49366;SDS011;35245;52.026;8.540;2023-11-21T03:12:48;31.48;;;16.25;;
49366;SDS011;35245;52.026;8.540;2023-11-21T03:15:16;33.47;;;16.35;;
49366;SDS011;35245;52.026;8.540;2023-11-21T03:17:43;33.58;;;16.17;;
49366;SDS011;35245;52.026;8.540;2023-11-21T03:20:10;30.77;;;15.48;;
49366;SDS011;35245;52.026;8.540;2023-11-21T03:22:38;29.92;;;15.15;;
49366;SDS011;35245;52.026;8.540;2023-11-21T03:25:06;33.22;;;16.23;;
49366;SDS011;35245;52.026;8.540;2023-11-21T03:27:35;32.90;;;16.80;;
49366;SDS011;35245;52.026;8.540;2023-11-21T03:30:03;33.08;;;16.98;;
49366;SDS011;35245;52.026;8.540;2023-11-21T03:32:33;32.35;;;16.85;;
49366;SDS011;35245;52.026;8.540;2023-11-21T03:35:00;30.02;;;15.52;;
49366;SDS011;35245;52.026;8.540;2023-11-21T03:37:28;30.23;;;15.23;;
49366;SDS011;35245;52.026;8.540;2023-11-21T03:39:55;38.92;;;16.63;;
49366;SDS011;35245;52.026;8.540;2023-11-21T03:42:22;38.17;;;17.63;;
49366;SDS011;35245;52.026;8.540;2023-11-21T03:44:50;32.60;;;16.52;;
49366;SDS011;35245;52.026;8.540;2023-11-21T03:47:17;33.17;;;18.00;;
49366;SDS011;35245;52.026;8.540;2023-11-21T03:49:46;32.33;;;17.17;;
49366;SDS011;35245;52.026;8.540;2023-11-21T03:52:13;32.22;;;15.77;;
49366;SDS011;35245;52.026;8.540;2023-11-21T03:54:40;33.80;;;17.00;;
49366;SDS011;35245;52.026;8.540;2023-11-21T03:57:08;35.35;;;17.85;;
49366;SDS011;35245;52.026;8.540;2023-11-21T03:59:35;40.25;;;18.63;;
49366;SDS011;35245;52.026;8.540;2023-11-21T04:02:03;40.45;;;18.90;;
49366;SDS011;35245;52.026;8.540;2023-11-21T04:04:30;32.72;;;17.33;;
49366;SDS011;35245;52.026;8.540;2023-11-21T04:06:58;39.33;;;17.65;;
49366;SDS011;35245;52.026;8.540;2023-11-21T04:09:25;37.53;;;19.80;;
49366;SDS011;35245;52.026;8.540;2023-11-21T04:11:52;41.50;;;18.75;;
49366;SDS011;35245;52.026;8.540;2023-11-21T04:14:19;41.20;;;19.65;;
49366;SDS011;35245;52.026;8.540;2023-11-21T04:16:46;34.95;;;18.02;;
49366;SDS011;35245;52.026;8.540;2023-11-21T04:19:13;34.50;;;19.02;;
49366;SDS011;35245;52.026;8.540;2023-11-21T04:21:40;39.97;;;19.08;;
49366;SDS011;35245;52.026;8.540;2023-11-21T04:24:09;38.28;;;18.70;;
49366;SDS011;35245;52.026;8.540;2023-11-21T04:26:36;32.33;;;17.60;;
49366;SDS011;35245;52.026;8.540;2023-11-21T04:29:03;36.53;;;19.52;;
49366;SDS011;35245;52.026;8.540;2023-11-21T04:31:30;33.17;;;19.02;;
49366;SDS011;35245;52.026;8.540;2023-11-21T04:33:57;36.67;;;19.85;;
49366;SDS011;35245;52.026;8.540;2023-11-21T04:36:24;35.70;;;19.10;;
49366;SDS011;35245;52.026;8.540;2023-11-21T04:38:51;40.92;;;21.15;;
49366;SDS011;35245;52.026;8.540;2023-11-21T04:41:20;38.55;;;20.20;;
49366;SDS011;35245;52.026;8.540;2023-11-21T04:43:46;39.83;;;20.90;;
49366;SDS011;35245;52.026;8.540;2023-11-21T04:46:14;47.08;;;20.52;;
49366;SDS011;35245;52.026;8.540;2023-11-21T04:48:41;41.28;;;20.38;;
49366;SDS011;35245;52.026;8.540;2023-11-21T04:51:07;35.25;;;19.63;;
49366;SDS011;35245;52.026;8.540;2023-11-21T04:53:36;38.35;;;21.45;;
49366;SDS011;35245;52.026;8.540;2023-11-21T04:56:04;45.25;;;22.05;;
49366;SDS011;35245;52.026;8.540;2023-11-21T04:58:33;41.15;;;21.55;;
49366;SDS011;35245;52.026;8.540;2023-11-21T05:01:00;38.08;;;22.17;;
49366;SDS011;35245;52.026;8.540;2023-11-21T05:03:28;39.10;;;22.30;;
49366;SDS011;35245;52.026;8.540;2023-11-21T05:05:55;43.90;;;22.95;;
49366;SDS011;35245;52.026;8.540;2023-11-21T05:08:22;39.65;;;22.63;;
49366;SDS011;35245;52.026;8.540;2023-11-21T05:10:48;42.95;;;24.17;;
49366;SDS011;35245;52.026;8.540;2023-11-21T05:13:16;40.00;;;22.27;;
49366;SDS011;35245;52.026;8.540;2023-11-21T05:15:45;44.63;;;24.50;;
49366;SDS011;35245;52.026;8.540;2023-11-21T05:18:12;47.20;;;25.42;;
49366;SDS011;35245;52.026;8.540;2023-11-21T05:20:39;41.40;;;22.67;;
49366;SDS011;35245;52.026;8.540;2023-11-21T05:23:06;38.90;;;22.60;;
49366;SDS011;35245;52.026;8.540;2023-11-21T05:25:33;37.22;;;21.42;;
49366;SDS011;35245;52.026;8.540;2023-11-21T05:28:01;39.58;;;22.70;;
49366;SDS011;35245;52.026;8.540;2023-11-21T05:30:29;41.05;;;23.05;;
49366;SDS011;35245;52.026;8.540;2023-11-21T05:32:57;45.10;;;23.38;;
49366;SDS011;35245;52.026;8.540;2023-11-21T05:35:24;35.08;;;22.00;;
49366;SDS011;35245;52.026;8.540;2023-11-21T05:37:51;36.85;;;21.30;;
49366;SDS011;35245;52.026;8.540;2023-11-21T05:40:19;39.35;;;22.25;;
49366;SDS011;35245;52.026;8.540;2023-11-21T05:42:47;39.78;;;22.13;;
49366;SDS011;35245;52.026;8.540;2023-11-21T05:45:14;44.08;;;23.10;;
49366;SDS011;35245;52.026;8.540;2023-11-21T05:47:42;37.38;;;21.42;;
49366;SDS011;35245;52.026;8.540;2023-11-21T05:50:12;38.92;;;22.10;;
49366;SDS011;35245;52.026;8.540;2023-11-21T05:52:40;38.67;;;22.13;;
49366;SDS011;35245;52.026;8.540;2023-11-21T05:55:08;34.42;;;20.80;;
49366;SDS011;35245;52.026;8.540;2023-11-21T05:57:35;37.22;;;21.55;;
49366;SDS011;35245;52.026;8.540;2023-11-21T06:00:03;38.13;;;21.83;;
49366;SDS011;35245;52.026;8.540;2023-11-21T06:02:36;42.25;;;21.92;;
49366;SDS011;35245;52.026;8.540;2023-11-21T06:05:04;40.65;;;22.55;;
49366;SDS011;35245;52.026;8.540;2023-11-21T06:07:34;40.17;;;23.58;;
49366;SDS011;35245;52.026;8.540;2023-11-21T06:10:01;43.00;;;24.20;;
49366;SDS011;35245;52.026;8.540;2023-11-21T06:12:32;37.78;;;22.17;;
49366;SDS011;35245;52.026;8.540;2023-11-21T06:15:01;41.42;;;20.95;;
49366;SDS011;35245;52.026;8.540;2023-11-21T06:17:30;37.75;;;20.55;;
49366;SDS011;35245;52.026;8.540;2023-11-21T06:19:57;35.72;;;21.63;;
49366;SDS011;35245;52.026;8.540;2023-11-21T06:22:24;41.10;;;22.73;;
49366;SDS011;35245;52.026;8.540;2023-11-21T06:24:52;39.17;;;21.17;;
49366;SDS011;35245;52.026;8.540;2023-11-21T06:27:19;32.60;;;19.70;;
49366;SDS011;35245;52.026;8.540;2023-11-21T06:29:46;39.78;;;23.65;;
49366;SDS011;35245;52.026;8.540;2023-11-21T06:32:13;39.60;;;21.30;;
49366;SDS011;35245;52.026;8.540;2023-11-21T06:34:41;34.50;;;20.65;;
49366;SDS011;35245;52.026;8.540;2023-11-21T06:37:08;34.10;;;20.02;;
49366;SDS011;35245;52.026;8.540;2023-11-21T06:39:36;37.05;;;22.05;;
49366;SDS011;35245;52.026;8.540;2023-11-21T06:42:05;34.83;;;20.83;;
49366;SDS011;35245;52.026;8.540;2023-11-21T06:44:32;38.00;;;21.40;;
49366;SDS011;35245;52.026;8.540;2023-11-21T06:47:00;36.33;;;20.40;;
49366;SDS011;35245;52.026;8.540;2023-11-21T06:49:27;34.33;;;21.38;;
49366;SDS011;35245;52.026;8.540;2023-11-21T06:51:54;38.25;;;20.85;;
49366;SDS011;35245;52.026;8.540;2023-11-21T06:54:21;36.30;;;20.50;;
49366;SDS011;35245;52.026;8.540;2023-11-21T06:56:48;32.30;;;19.63;;
49366;SDS011;35245;52.026;8.540;2023-11-21T06:59:16;38.38;;;21.20;;
49366;SDS011;35245;52.026;8.540;2023-11-21T07:01:43;42.22;;;19.77;;
49366;SDS011;35245;52.026;8.540;2023-11-21T07:04:10;39.08;;;18.02;;
49366;SDS011;35245;52.026;8.540;2023-11-21T07:06:37;40.75;;;18.45;;
49366;SDS011;35245;52.026;8.540;2023-11-21T07:09:04;33.08;;;16.95;;
49366;SDS011;35245;52.026;8.540;2023-11-21T07:11:33;28.52;;;16.85;;
49366;SDS011;35245;52.026;8.540;2023-11-21T07:14:00;33.63;;;17.50;;
49366;SDS011;35245;52.026;8.540;2023-11-21T07:16:33;36.67;;;17.33;;
49366;SDS011;35245;52.026;8.540;2023-11-21T07:19:02;36.70;;;18.23;;
49366;SDS011;35245;52.026;8.540;2023-11-21T07:21:31;35.28;;;16.73;;
49366;SDS011;35245;52.026;8.540;2023-11-21T07:23:58;33.60;;;17.77;;
49366;SDS011;35245;52.026;8.540;2023-11-21T07:26:26;39.42;;;17.25;;
49366;SDS011;35245;52.026;8.540;2023-11-21T07:28:53;35.47;;;18.55;;
49366;SDS011;35245;52.026;8.540;2023-11-21T07:31:20;34.85;;;18.35;;
49366;SDS011;35245;52.026;8.540;2023-11-21T07:33:49;36.05;;;17.38;;
49366;SDS011;35245;52.026;8.540;2023-11-21T07:36:16;37.35;;;17.38;;
49366;SDS011;35245;52.026;8.540;2023-11-21T07:38:44;33.35;;;17.33;;
49366;SDS011;35245;52.026;8.540;2023-11-21T07:41:11;37.45;;;19.45;;
49366;SDS011;35245;52.026;8.540;2023-11-21T07:43:40;41.33;;;20.23;;
49366;SDS011;35245;52.026;8.540;2023-11-21T07:46:07;36.97;;;19.10;;
49366;SDS011;35245;52.026;8.540;2023-11-21T07:48:34;51.85;;;23.13;;
49366;SDS011;35245;52.026;8.540;2023-11-21T07:51:03;57.75;;;23.42;;
49366;SDS011;35245;52.026;8.540;2023-11-21T07:53:29;55.63;;;23.90;;
49366;SDS011;35245;52.026;8.540;2023-11-21T07:55:56;57.55;;;23.75;;
49366;SDS011;35245;52.026;8.540;2023-11-21T07:58:24;51.75;;;23.05;;
49366;SDS011;35245;52.026;8.540;2023-11-21T08:00:51;57.97;;;24.33;;
49366;SDS011;35245;52.026;8.540;2023-11-21T08:03:18;43.20;;;20.98;;
49366;SDS011;35245;52.026;8.540;2023-11-21T08:05:44;45.58;;;21.80;;
49366;SDS011;35245;52.026;8.540;2023-11-21T08:08:13;41.22;;;20.20;;
49366;SDS011;35245;52.026;8.540;2023-11-21T08:10:40;39.17;;;19.80;;
49366;SDS011;35245;52.026;8.540;2023-11-21T08:13:07;44.80;;;21.08;;
49366;SDS011;35245;52.026;8.540;2023-11-21T08:15:39;33.85;;;18.10;;
49366;SDS011;35245;52.026;8.540;2023-11-21T08:18:10;42.33;;;19.77;;
49366;SDS011;35245;52.026;8.540;2023-11-21T08:20:37;44.80;;;20.50;;
49366;SDS011;35245;52.026;8.540;2023-11-21T08:23:05;43.95;;;20.92;;
49366;SDS011;35245;52.026;8.540;2023-11-21T08:25:33;41.20;;;19.35;;
49366;SDS011;35245;52.026;8.540;2023-11-21T08:28:00;35.70;;;18.52;;
49366;SDS011;35245;52.026;8.540;2023-11-21T08:30:27;35.40;;;18.17;;
49366;SDS011;35245;52.026;8.540;2023-11-21T08:32:55;38.83;;;19.00;;
49366;SDS011;35245;52.026;8.540;2023-11-21T08:35:23;39.13;;;19.70;;
49366;SDS011;35245;52.026;8.540;2023-11-21T08:37:51;37.58;;;18.70;;
49366;SDS011;35245;52.026;8.540;2023-11-21T08:40:18;41.50;;;21.50;;
49366;SDS011;35245;52.026;8.540;2023-11-21T08:42:47;46.20;;;21.27;;
49366;SDS011;35245;52.026;8.540;2023-11-21T08:45:14;38.42;;;19.83;;
49366;SDS011;35245;52.026;8.540;2023-11-21T08:47:42;36.00;;;18.45;;
49366;SDS011;35245;52.026;8.540;2023-11-21T08:50:10;42.97;;;21.73;;
49366;SDS011;35245;52.026;8.540;2023-11-21T08:52:37;35.88;;;19.35;;
49366;SDS011;35245;52.026;8.540;2023-11-21T08:55:05;42.65;;;23.48;;
49366;SDS011;35245;52.026;8.540;2023-11-21T08:57:33;32.80;;;17.65;;
49366;SDS011;35245;52.026;8.540;2023-11-21T09:00:03;38.40;;;18.75;;
49366;SDS011;35245;52.026;8.540;2023-11-21T09:02:33;28.05;;;16.65;;
49366;SDS011;35245;52.026;8.540;2023-11-21T09:05:00;27.00;;;15.60;;
49366;SDS011;35245;52.026;8.540;2023-11-21T09:07:28;28.20;;;15.23;;
49366;SDS011;35245;52.026;8.540;2023-11-21T09:09:55;26.65;;;15.75;;
49366;SDS011;35245;52.026;8.540;2023-11-21T09:12:22;26.25;;;14.57;;
49366;SDS011;35245;52.026;8.540;2023-11-21T09:14:51;26.00;;;14.32;;
49366;SDS011;35245;52.026;8.540;2023-11-21T09:17:19;24.13;;;13.57;;
49366;SDS011;35245;52.026;8.540;2023-11-21T09:19:46;25.70;;;13.60;;
49366;SDS011;35245;52.026;8.540;2023-11-21T09:22:16;17.27;;;10.65;;
49366;SDS011;35245;52.026;8.540;2023-11-21T09:24:45;21.20;;;10.77;;
49366;SDS011;35245;52.026;8.540;2023-11-21T09:27:13;17.48;;;10.60;;
49366;SDS011;35245;52.026;8.540;2023-11-21T09:29:40;28.40;;;19.05;;
49366;SDS011;35245;52.026;8.540;2023-11-21T09:32:07;19.35;;;11.75;;
49366;SDS011;35245;52.026;8.540;2023-11-21T09:34:37;15.13;;;9.52;;
49366;SDS011;35245;52.026;8.540;2023-11-21T09:37:04;13.57;;;9.27;;
49366;SDS011;35245;52.026;8.540;2023-11-21T09:39:31;15.95;;;9.90;;
49366;SDS011;35245;52.026;8.540;2023-11-21T09:42:01;17.15;;;9.38;;
49366;SDS011;35245;52.026;8.540;2023-11-21T09:44:32;12.73;;;8.50;;
49366;SDS011;35245;52.026;8.540;2023-11-21T09:47:02;14.88;;;8.60;;
49366;SDS011;35245;52.026;8.540;2023-11-21T09:49:29;14.27;;;8.88;;
49366;SDS011;35245;52.026;8.540;2023-11-21T09:52:01;14.23;;;9.07;;
49366;SDS011;35245;52.026;8.540;2023-11-21T09:54:29;15.57;;;9.50;;
49366;SDS011;35245;52.026;8.540;2023-11-21T09:56:57;16.27;;;10.10;;
49366;SDS011;35245;52.026;8.540;2023-11-21T09:59:24;15.45;;;10.40;;
49366;SDS011;35245;52.026;8.540;2023-11-21T10:01:54;17.75;;;9.70;;
49366;SDS011;35245;52.026;8.540;2023-11-21T10:04:23;18.73;;;10.18;;
49366;SDS011;35245;52.026;8.540;2023-11-21T10:06:51;18.67;;;10.52;;
49366;SDS011;35245;52.026;8.540;2023-11-21T10:09:21;14.10;;;9.82;;
49366;SDS011;35245;52.026;8.540;2023-11-21T10:11:49;16.17;;;9.80;;
49366;SDS011;35245;52.026;8.540;2023-11-21T10:14:17;20.13;;;12.88;;
49366;SDS011;35245;52.026;8.540;2023-11-21T10:16:45;14.35;;;9.48;;
49366;SDS011;35245;52.026;8.540;2023-11-21T10:19:12;13.38;;;8.70;;
49366;SDS011;35245;52.026;8.540;2023-11-21T10:21:41;13.80;;;7.40;;
49366;SDS011;35245;52.026;8.540;2023-11-21T10:24:08;12.20;;;6.93;;
49366;SDS011;35245;52.026;8.540;2023-11-21T10:26:37;12.90;;;7.07;;
49366;SDS011;35245;52.026;8.540;2023-11-21T10:29:04;12.45;;;7.80;;
49366;SDS011;35245;52.026;8.540;2023-11-21T10:31:31;10.45;;;6.93;;
49366;SDS011;35245;52.026;8.540;2023-11-21T10:34:11;12.32;;;8.15;;
49366;SDS011;35245;52.026;8.540;2023-11-21T10:36:42;11.50;;;7.97;;
49366;SDS011;35245;52.026;8.540;2023-11-21T10:39:09;9.80;;;6.68;;
49366;SDS011;35245;52.026;8.540;2023-11-21T10:41:43;9.13;;;6.70;;
49366;SDS011;35245;52.026;8.540;2023-11-21T10:44:11;19.55;;;15.82;;
49366;SDS011;35245;52.026;8.540;2023-11-21T10:46:45;9.27;;;6.00;;
49366;SDS011;35245;52.026;8.540;2023-11-21T10:49:15;7.03;;;5.00;;
49366;SDS011;35245;52.026;8.540;2023-11-21T10:51:43;9.30;;;5.72;;
49366;SDS011;35245;52.026;8.540;2023-11-21T10:54:10;7.60;;;4.63;;
49366;SDS011;35245;52.026;8.540;2023-11-21T10:56:38;8.48;;;4.78;;
49366;SDS011;35245;52.026;8.540;2023-11-21T10:59:10;9.05;;;5.05;;
49366;SDS011;35245;52.026;8.540;2023-11-21T11:04:08;10.55;;;5.47;;
49366;SDS011;35245;52.026;8.540;2023-11-21T11:06:40;9.30;;;5.53;;
49366;SDS011;35245;52.026;8.540;2023-11-21T11:09:07;6.85;;;4.78;;
49366;SDS011;35245;52.026;8.540;2023-11-21T11:11:38;7.13;;;5.30;;
49366;SDS011;35245;52.026;8.540;2023-11-21T11:14:06;8.38;;;4.80;;
49366;SDS011;35245;52.026;8.540;2023-11-21T11:16:35;9.27;;;5.35;;
49366;SDS011;35245;52.026;8.540;2023-11-21T11:19:05;8.17;;;5.43;;
49366;SDS011;35245;52.026;8.540;2023-11-21T11:21:34;8.55;;;5.57;;
49366;SDS011;35245;52.026;8.540;2023-11-21T11:24:17;6.90;;;5.18;;
49366;SDS011;35245;52.026;8.540;2023-11-21T11:27:01;8.73;;;6.07;;
49366;SDS011;35245;52.026;8.540;2023-11-21T11:29:35;13.23;;;8.43;;
49366;SDS011;35245;52.026;8.540;2023-11-21T11:32:12;11.13;;;8.23;;
49366;SDS011;35245;52.026;8.540;2023-11-21T11:34:46;11.30;;;8.75;;
49366;SDS011;35245;52.026;8.540;2023-11-21T11:37:16;13.02;;;9.23;;
49366;SDS011;35245;52.026;8.540;2023-11-21T11:39:44;13.93;;;10.07;;
49366;SDS011;35245;52.026;8.540;2023-11-21T11:42:11;13.05;;;9.82;;
49366;SDS011;35245;52.026;8.540;2023-11-21T11:44:50;12.27;;;9.48;;
49366;SDS011;35245;52.026;8.540;2023-11-21T11:47:22;13.57;;;9.40;;
49366;SDS011;35245;52.026;8.540;2023-11-21T11:50:06;13.35;;;9.00;;
49366;SDS011;35245;52.026;8.540;2023-11-21T11:52:38;14.38;;;9.88;;
49366;SDS011;35245;52.026;8.540;2023-11-21T11:55:06;12.18;;;8.90;;
49366;SDS011;35245;52.026;8.540;2023-11-21T11:57:36;12.65;;;7.75;;
49366;SDS011;35245;52.026;8.540;2023-11-21T12:00:08;14.75;;;8.30;;
49366;SDS011;35245;52.026;8.540;2023-11-21T12:02:38;13.95;;;9.80;;
49366;SDS011;35245;52.026;8.540;2023-11-21T12:05:09;13.23;;;9.32;;
49366;SDS011;35245;52.026;8.540;2023-11-21T12:07:45;14.43;;;9.18;;
49366;SDS011;35245;52.026;8.540;2023-11-21T12:10:13;16.77;;;10.57;;
49366;SDS011;35245;52.026;8.540;2023-11-21T12:12:43;15.05;;;9.57;;
49366;SDS011;35245;52.026;8.540;2023-11-21T12:15:11;14.57;;;9.07;;
49366;SDS011;35245;52.026;8.540;2023-11-21T12:17:41;15.02;;;9.48;;
49366;SDS011;35245;52.026;8.540;2023-11-21T12:20:09;15.25;;;9.40;;
49366;SDS011;35245;52.026;8.540;2023-11-21T12:25:12;11.65;;;7.50;;
49366;SDS011;35245;52.026;8.540;2023-11-21T12:27:41;13.52;;;8.85;;
49366;SDS011;35245;52.026;8.540;2023-11-21T12:30:10;15.02;;;8.95;;
49366;SDS011;35245;52.026;8.540;2023-11-21T12:32:42;13.27;;;8.30;;
49366;SDS011;35245;52.026;8.540;2023-11-21T12:35:11;14.90;;;8.25;;
49366;SDS011;35245;52.026;8.540;2023-11-21T12:37:38;11.35;;;7.95;;
49366;SDS011;35245;52.026;8.540;2023-11-21T12:40:08;12.88;;;8.25;;
49366;SDS011;35245;52.026;8.540;2023-11-21T12:42:37;10.98;;;8.32;;
49366;SDS011;35245;52.026;8.540;2023-11-21T12:45:18;13.90;;;8.60;;
49366;SDS011;35245;52.026;8.540;2023-11-21T12:47:47;10.73;;;7.70;;
49366;SDS011;35245;52.026;8.540;2023-11-21T12:50:18;12.25;;;8.02;;
49366;SDS011;35245;52.026;8.540;2023-11-21T12:55:15;13.35;;;7.93;;
49366;SDS011;35245;52.026;8.540;2023-11-21T12:57:43;14.13;;;8.95;;
49366;SDS011;35245;52.026;8.540;2023-11-21T13:00:11;13.57;;;8.85;;
49366;SDS011;35245;52.026;8.540;2023-11-21T13:02:53;11.88;;;8.57;;
49366;SDS011;35245;52.026;8.540;2023-11-21T13:05:29;11.15;;;7.30;;
49366;SDS011;35245;52.026;8.540;2023-11-21T13:07:58;11.48;;;7.90;;
49366;SDS011;35245;52.026;8.540;2023-11-21T13:10:28;12.75;;;7.97;;
49366;SDS011;35245;52.026;8.540;2023-11-21T13:12:56;12.50;;;7.63;;
49366;SDS011;35245;52.026;8.540;2023-11-21T13:15:25;13.77;;;8.43;;
49366;SDS011;35245;52.026;8.540;2023-11-21T13:17:54;16.17;;;8.18;;
49366;SDS011;35245;52.026;8.540;2023-11-21T13:20:22;13.98;;;8.82;;
49366;SDS011;35245;52.026;8.540;2023-11-21T13:22:50;11.50;;;7.78;;
49366;SDS011;35245;52.026;8.540;2023-11-21T13:25:19;9.13;;;6.80;;
49366;SDS011;35245;52.026;8.540;2023-11-21T13:27:47;10.80;;;7.45;;
49366;SDS011;35245;52.026;8.540;2023-11-21T13:30:14;10.35;;;6.63;;
49366;SDS011;35245;52.026;8.540;2023-11-21T13:32:42;9.45;;;6.63;;
49366;SDS011;35245;52.026;8.540;2023-11-21T13:35:11;11.52;;;6.78;;
49366;SDS011;35245;52.026;8.540;2023-11-21T13:37:48;10.88;;;6.00;;
49366;SDS011;35245;52.026;8.540;2023-11-21T13:40:19;10.98;;;6.82;;
49366;SDS011;35245;52.026;8.540;2023-11-21T13:42:48;11.80;;;7.13;;
49366;SDS011;35245;52.026;8.540;2023-11-21T13:45:18;10.43;;;6.60;;
49366;SDS011;35245;52.026;8.540;2023-11-21T13:47:47;12.60;;;7.30;;
49366;SDS011;35245;52.026;8.540;2023-11-21T13:50:17;12.45;;;6.75;;
49366;SDS011;35245;52.026;8.540;2023-11-21T13:55:15;13.07;;;7.30;;
49366;SDS011;35245;52.026;8.540;2023-11-21T13:57:43;9.73;;;6.32;;
49366;SDS011;35245;52.026;8.540;2023-11-21T14:00:14;10.63;;;6.18;;
49366;SDS011;35245;52.026;8.540;2023-11-21T14:03:07;10.63;;;6.95;;
49366;SDS011;35245;52.026;8.540;2023-11-21T14:05:44;15.30;;;6.72;;
49366;SDS011;35245;52.026;8.540;2023-11-21T14:08:12;13.25;;;7.22;;
49366;SDS011;35245;52.026;8.540;2023-11-21T14:10:42;12.57;;;7.32;;
49366;SDS011;35245;52.026;8.540;2023-11-21T14:13:10;8.88;;;6.22;;
49366;SDS011;35245;52.026;8.540;2023-11-21T14:15:38;10.52;;;6.63;;
49366;SDS011;35245;52.026;8.540;2023-11-21T14:18:08;8.97;;;6.30;;
49366;SDS011;35245;52.026;8.540;2023-11-21T14:20:38;9.05;;;5.82;;
49366;SDS011;35245;52.026;8.540;2023-11-21T14:23:07;11.80;;;5.85;;
49366;SDS011;35245;52.026;8.540;2023-11-21T14:25:35;9.85;;;6.43;;
49366;SDS011;35245;52.026;8.540;2023-11-21T14:28:04;10.88;;;6.55;;
49366;SDS011;35245;52.026;8.540;2023-11-21T14:30:31;7.93;;;5.20;;
49366;SDS011;35245;52.026;8.540;2023-11-21T14:33:00;9.52;;;6.43;;
49366;SDS011;35245;52.026;8.540;2023-11-21T14:35:28;11.23;;;6.53;;
49366;SDS011;35245;52.026;8.540;2023-11-21T14:37:57;11.30;;;6.43;;
49366;SDS011;35245;52.026;8.540;2023-11-21T14:40:26;7.78;;;5.40;;
49366;SDS011;35245;52.026;8.540;2023-11-21T14:42:58;9.07;;;5.85;;